createdAt,value
2018-11-21T00:00:18.802Z,10.50
2018-11-21T00:02:48.537Z,10.17
2018-11-21T00:05:17.631Z,11.33
2018-11-21T00:07:46.693Z,8.67
2018-11-21T00:10:15.765Z,13.00
2018-11-21T00:12:50.319Z,20.70
2018-11-21T00:15:19.426Z,10.27
2018-11-21T00:17:48.488Z,14.37
2018-11-21T00:20:17.635Z,13.73
2018-11-21T00:22:46.707Z,24.13
2018-11-21T00:25:15.734Z,15.17
2018-11-21T00:27:44.820Z,12.57
2018-11-21T00:30:15.315Z,12.13
2018-11-21T00:32:44.362Z,13.90
2018-11-21T00:35:13.431Z,15.37
2018-11-21T00:37:42.578Z,12.87
2018-11-21T00:40:13.418Z,7.90
2018-11-21T00:42:46.731Z,14.20
2018-11-21T00:45:12.180Z,14.40
2018-11-21T00:47:41.386Z,9.40
2018-11-21T00:50:10.483Z,8.97
2018-11-21T00:52:41.981Z,12.97
2018-11-21T00:55:11.062Z,14.40
2018-11-21T00:57:40.095Z,12.70
2018-11-21T01:00:10.799Z,14.28
2018-11-21T01:02:39.824Z,13.50
2018-11-21T01:05:08.873Z,16.33
2018-11-21T01:07:39.172Z,12.70
2018-11-21T01:10:08.233Z,18.23
2018-11-21T01:12:37.365Z,12.50
2018-11-21T01:15:06.899Z,13.87
2018-11-21T01:17:38.836Z,14.00
2018-11-21T01:20:08.735Z,16.17
2018-11-21T01:22:38.042Z,15.93
2018-11-21T01:25:07.875Z,11.80
2018-11-21T01:27:37.277Z,9.43
2018-11-21T01:30:07.565Z,10.90
2018-11-21T01:32:36.822Z,15.60
2018-11-21T01:35:08.802Z,22.00
2018-11-21T01:37:40.779Z,19.87
2018-11-21T01:40:10.516Z,19.63
2018-11-21T01:42:39.583Z,20.43
2018-11-21T01:45:08.793Z,20.60
2018-11-21T01:47:40.231Z,17.57
2018-11-21T01:50:09.606Z,23.10
2018-11-21T01:52:38.778Z,23.87
2018-11-21T01:55:07.907Z,23.13
2018-11-21T01:57:37.104Z,9.97
2018-11-21T02:00:08.042Z,23.83
2018-11-21T02:02:37.187Z,20.17
2018-11-21T02:05:06.465Z,17.20
2018-11-21T02:07:35.607Z,14.07
2018-11-21T02:10:04.866Z,14.30
2018-11-21T02:12:33.911Z,18.65
2018-11-21T02:15:02.960Z,25.83
2018-11-21T02:17:31.977Z,27.23
2018-11-21T02:20:00.994Z,23.77
2018-11-21T02:22:30.054Z,26.67
2018-11-21T02:24:59.100Z,15.43
2018-11-21T02:27:28.168Z,25.07
2018-11-21T02:29:57.193Z,16.67
2018-11-21T02:32:26.380Z,22.30
2018-11-21T02:34:55.435Z,19.97
2018-11-21T02:37:24.526Z,14.60
2018-11-21T02:39:53.585Z,22.53
2018-11-21T02:42:22.681Z,15.30
2018-11-21T02:44:51.725Z,18.63
2018-11-21T02:47:20.891Z,25.80
2018-11-21T02:49:49.924Z,21.77
2018-11-21T02:52:18.985Z,21.40
2018-11-21T02:54:48.058Z,23.33
2018-11-21T02:57:22.434Z,17.30
2018-11-21T02:59:56.581Z,18.07
2018-11-21T03:02:25.604Z,26.10
2018-11-21T03:04:54.614Z,23.77
2018-11-21T03:07:23.675Z,22.30
2018-11-21T03:09:52.663Z,20.87
2018-11-21T03:12:21.647Z,23.77
2018-11-21T03:14:50.681Z,20.90
2018-11-21T03:17:19.662Z,16.00
2018-11-21T03:19:48.798Z,20.70
2018-11-21T03:22:17.781Z,17.83
2018-11-21T03:24:46.838Z,20.97
2018-11-21T03:27:15.896Z,14.80
2018-11-21T03:29:44.919Z,7.50
2018-11-21T03:32:13.981Z,7.50
2018-11-21T03:34:43.116Z,12.33
2018-11-21T03:37:12.364Z,15.53
2018-11-21T03:39:41.411Z,13.10
2018-11-21T03:42:10.595Z,9.00
2018-11-21T03:44:39.676Z,17.27
2018-11-21T03:47:08.686Z,17.97
2018-11-21T03:49:37.765Z,12.27
2018-11-21T03:52:06.764Z,10.53
2018-11-21T03:54:35.835Z,11.47
2018-11-21T03:57:04.837Z,14.93
2018-11-21T03:59:33.857Z,13.10
2018-11-21T04:02:02.956Z,18.03
2018-11-21T04:04:32.045Z,19.03
2018-11-21T04:07:01.093Z,11.13
2018-11-21T04:09:30.117Z,12.73
2018-11-21T04:11:59.114Z,11.37
2018-11-21T04:14:28.114Z,17.13
2018-11-21T04:16:57.122Z,19.20
2018-11-21T04:19:26.177Z,14.00
2018-11-21T04:21:55.126Z,10.43
2018-11-21T04:24:24.140Z,19.03
2018-11-21T04:26:53.119Z,20.80
2018-11-21T04:29:22.135Z,19.20
2018-11-21T04:31:51.141Z,10.37
2018-11-21T04:34:20.209Z,13.73
2018-11-21T04:36:49.226Z,14.43
2018-11-21T04:39:18.248Z,12.60
2018-11-21T04:41:47.266Z,11.83
2018-11-21T04:44:16.334Z,14.45
2018-11-21T04:46:45.471Z,16.50
2018-11-21T04:49:14.750Z,12.90
2018-11-21T04:51:43.842Z,15.90
2018-11-21T04:54:12.871Z,8.93
2018-11-21T04:56:41.901Z,11.97
2018-11-21T04:59:10.974Z,12.67
2018-11-21T05:01:39.987Z,15.80
2018-11-21T05:04:08.971Z,10.33
2018-11-21T05:06:37.994Z,9.37
2018-11-21T05:09:10.090Z,10.80
2018-11-21T05:11:39.285Z,13.93
2018-11-21T05:14:08.469Z,9.23
2018-11-21T05:16:37.508Z,7.33
2018-11-21T05:19:06.576Z,12.87
2018-11-21T05:21:35.686Z,10.53
2018-11-21T05:24:04.680Z,11.97
2018-11-21T05:26:33.688Z,8.33
2018-11-21T05:29:02.691Z,8.97
2018-11-21T05:31:31.703Z,14.83
2018-11-21T05:34:00.674Z,12.93
2018-11-21T05:36:29.703Z,8.43
2018-11-21T05:38:58.715Z,16.03
2018-11-21T05:41:27.771Z,6.43
2018-11-21T05:43:56.789Z,11.87
2018-11-21T05:46:25.957Z,8.87
2018-11-21T05:48:54.976Z,9.20
2018-11-21T05:51:23.998Z,9.63
2018-11-21T05:53:53.005Z,11.43
2018-11-21T05:56:22.022Z,8.83
2018-11-21T05:58:51.029Z,12.93
2018-11-21T06:01:21.827Z,8.47
2018-11-21T06:03:50.813Z,13.17
2018-11-21T06:06:22.388Z,7.30
2018-11-21T06:08:51.505Z,9.93
2018-11-21T06:11:20.589Z,8.23
2018-11-21T06:13:49.746Z,10.40
2018-11-21T06:16:18.874Z,5.62
2018-11-21T06:18:48.203Z,8.07
2018-11-21T06:21:17.230Z,3.10
2018-11-21T06:23:46.354Z,7.73
2018-11-21T06:26:15.481Z,5.80
2018-11-21T06:28:44.458Z,6.03
2018-11-21T06:31:13.491Z,8.87
2018-11-21T06:33:42.494Z,8.73
2018-11-21T06:36:11.500Z,9.57
2018-11-21T06:38:40.466Z,3.80
2018-11-21T06:41:09.538Z,4.40
2018-11-21T06:43:38.564Z,9.17
2018-11-21T06:46:07.709Z,7.30
2018-11-21T06:48:36.804Z,9.87
2018-11-21T06:51:06.025Z,9.83
2018-11-21T06:53:35.020Z,7.73
2018-11-21T06:56:04.095Z,5.77
2018-11-21T06:58:33.142Z,5.70
2018-11-21T07:01:02.126Z,9.70
2018-11-21T07:03:31.154Z,8.00
2018-11-21T07:06:00.172Z,7.07
2018-11-21T07:08:29.200Z,5.43
2018-11-21T07:10:58.225Z,3.00
2018-11-21T07:13:27.269Z,12.03
2018-11-21T07:15:56.246Z,7.37
2018-11-21T07:18:25.274Z,6.40
2018-11-21T07:20:54.454Z,7.97
2018-11-21T07:23:23.571Z,10.33
2018-11-21T07:25:52.638Z,9.00
2018-11-21T07:28:21.724Z,7.83
2018-11-21T07:30:50.729Z,5.43
2018-11-21T07:33:19.757Z,9.15
2018-11-21T07:35:48.746Z,15.10
2018-11-21T07:38:17.742Z,7.27
2018-11-21T07:40:46.829Z,4.10
2018-11-21T07:43:15.848Z,7.50
2018-11-21T07:45:44.878Z,8.33
2018-11-21T07:48:20.167Z,14.97
2018-11-21T07:50:45.707Z,20.70
2018-11-21T07:53:14.735Z,9.63
2018-11-21T07:55:43.779Z,30.80
2018-11-21T07:58:17.252Z,13.33
2018-11-21T08:01:01.408Z,24.87
2018-11-21T08:03:35.530Z,29.40
2018-11-21T08:06:16.525Z,38.30
2018-11-21T08:09:13.453Z,27.40
2018-11-21T08:12:10.564Z,26.13
2018-11-21T08:14:57.161Z,20.97
2018-11-21T08:17:43.694Z,20.77
2018-11-21T08:20:34.841Z,22.60
2018-11-21T08:23:28.624Z,23.50
2018-11-21T08:26:05.472Z,10.50
2018-11-21T08:28:34.442Z,10.93
2018-11-21T08:31:03.455Z,3.97
2018-11-21T08:33:34.094Z,6.63
2018-11-21T08:36:01.759Z,8.20
2018-11-21T08:38:30.810Z,5.13
2018-11-21T08:40:59.826Z,6.63
2018-11-21T08:43:31.811Z,1.63
2018-11-21T08:46:00.798Z,9.45
2018-11-21T08:48:29.836Z,2.90
2018-11-21T08:50:59.030Z,4.60
2018-11-21T08:53:30.546Z,2.03
2018-11-21T08:55:59.690Z,5.93
2018-11-21T08:58:28.922Z,5.70
2018-11-21T09:00:58.142Z,4.53
2018-11-21T09:03:27.382Z,4.40
2018-11-21T09:05:56.448Z,4.03
2018-11-21T09:08:26.021Z,2.40
2018-11-21T09:10:55.044Z,4.03
2018-11-21T09:13:24.057Z,3.77
2018-11-21T09:15:53.483Z,4.23
2018-11-21T09:18:22.046Z,3.90
2018-11-21T09:20:51.070Z,7.10
2018-11-21T09:23:20.070Z,3.53
2018-11-21T09:25:49.391Z,4.70
2018-11-21T09:28:18.396Z,5.27
2018-11-21T09:30:47.416Z,12.67
2018-11-21T09:33:16.386Z,13.87
2018-11-21T09:35:45.434Z,10.90
2018-11-21T09:38:14.412Z,10.13
2018-11-21T09:40:43.418Z,5.23
2018-11-21T09:43:12.394Z,6.53
2018-11-21T09:45:41.398Z,7.43
2018-11-21T09:48:10.455Z,8.03
2018-11-21T09:50:39.434Z,9.87
2018-11-21T09:53:11.622Z,4.13
2018-11-21T09:55:40.636Z,4.20
2018-11-21T09:58:09.670Z,11.53
2018-11-21T10:01:15.146Z,4.10
2018-11-21T10:03:44.190Z,4.70
2018-11-21T10:06:21.626Z,8.67
2018-11-21T10:08:54.968Z,5.63
2018-11-21T10:11:23.971Z,5.23
2018-11-21T10:13:53.019Z,6.67
2018-11-21T10:16:23.634Z,7.50
2018-11-21T10:18:54.347Z,10.20
2018-11-21T10:21:24.945Z,5.70
2018-11-21T10:23:53.997Z,5.67
2018-11-21T10:26:23.146Z,2.30
2018-11-21T10:28:52.781Z,6.80
2018-11-21T10:31:23.204Z,4.40
2018-11-21T10:33:53.328Z,7.67
2018-11-21T10:36:24.092Z,6.60
2018-11-21T10:38:53.098Z,7.90
2018-11-21T10:41:23.231Z,4.47
2018-11-21T10:43:52.227Z,4.30
2018-11-21T10:46:21.235Z,6.60
2018-11-21T10:48:50.413Z,6.60
2018-11-21T10:51:19.410Z,3.80
2018-11-21T10:53:48.435Z,6.10
2018-11-21T10:56:17.412Z,10.13
2018-11-21T10:58:46.444Z,7.80
2018-11-21T11:01:33.127Z,7.30
2018-11-21T11:04:05.306Z,5.27
2018-11-21T11:07:03.269Z,6.97
2018-11-21T11:09:56.648Z,6.90
2018-11-21T11:12:38.698Z,7.27
2018-11-21T11:15:25.477Z,4.63
2018-11-21T11:18:13.482Z,7.47
2018-11-21T11:21:00.141Z,8.60
2018-11-21T11:24:03.450Z,11.10
2018-11-21T11:26:57.301Z,3.23
2018-11-21T11:29:43.942Z,5.05
2018-11-21T11:32:29.873Z,10.60
2018-11-21T11:35:11.711Z,5.47
2018-11-21T11:37:59.766Z,7.97
2018-11-21T11:40:47.793Z,4.80
2018-11-21T11:43:34.615Z,11.00
2018-11-21T11:46:22.627Z,7.97
2018-11-21T11:49:19.558Z,6.30
2018-11-21T11:52:06.144Z,7.33
2018-11-21T11:55:01.425Z,8.33
2018-11-21T11:57:59.220Z,8.33
2018-11-21T12:00:45.919Z,7.50
2018-11-21T12:03:45.525Z,12.27
2018-11-21T12:06:45.875Z,6.90
2018-11-21T12:09:36.613Z,11.67
2018-11-21T12:12:23.392Z,5.40
2018-11-21T12:15:10.065Z,6.73
2018-11-21T12:17:58.105Z,5.27
2018-11-21T12:21:01.341Z,7.20
2018-11-21T12:23:47.828Z,9.00
2018-11-21T12:26:30.967Z,13.93
2018-11-21T12:29:18.998Z,4.30
2018-11-21T12:32:05.785Z,7.83
2018-11-21T12:34:56.758Z,6.60
2018-11-21T12:37:43.396Z,3.00
2018-11-21T12:40:40.674Z,7.67
2018-11-21T12:43:47.198Z,5.50
2018-11-21T12:46:33.685Z,3.20
2018-11-21T12:49:15.314Z,4.30
2018-11-21T12:52:06.179Z,6.63
2018-11-21T12:55:00.048Z,4.00
2018-11-21T12:57:47.063Z,3.33
2018-11-21T13:00:44.706Z,3.60
2018-11-21T13:03:51.151Z,4.40
2018-11-21T13:06:30.554Z,5.23
2018-11-21T13:09:27.633Z,1.70
2018-11-21T13:12:17.147Z,4.13
2018-11-21T13:15:03.614Z,7.43
2018-11-21T13:17:56.217Z,6.00
2018-11-21T13:20:50.425Z,3.40
2018-11-21T13:23:29.775Z,4.60
2018-11-21T13:26:26.497Z,3.57
2018-11-21T13:29:23.393Z,5.70
2018-11-21T13:32:10.347Z,7.50
2018-11-21T13:34:51.810Z,4.23
2018-11-21T13:37:39.872Z,4.50
2018-11-21T13:40:28.170Z,3.83
2018-11-21T13:43:14.977Z,5.80
2018-11-21T13:46:03.059Z,5.47
2018-11-21T13:49:01.063Z,5.23
2018-11-21T13:51:47.861Z,7.60
2018-11-21T13:54:35.908Z,1.77
2018-11-21T13:57:04.958Z,3.10
2018-11-21T13:59:34.019Z,4.57
2018-11-21T14:02:03.411Z,3.03
2018-11-21T14:04:32.450Z,3.70
2018-11-21T14:07:01.517Z,6.43
2018-11-21T14:09:30.610Z,5.47
2018-11-21T14:14:30.309Z,3.63
2018-11-21T14:16:59.488Z,1.60
2018-11-21T14:19:28.598Z,9.33
2018-11-21T14:21:57.711Z,5.83
2018-11-21T14:24:28.089Z,5.27
2018-11-21T14:26:58.082Z,5.40
2018-11-21T14:29:27.400Z,2.70
2018-11-21T14:31:57.988Z,3.23
2018-11-21T14:34:28.661Z,2.23
2018-11-21T14:36:57.654Z,7.80
2018-11-21T14:39:26.677Z,3.53
2018-11-21T14:41:56.223Z,3.43
2018-11-21T14:44:25.316Z,7.83
2018-11-21T14:46:55.523Z,3.87
2018-11-21T14:49:24.634Z,2.63
2018-11-21T14:51:53.719Z,4.67
2018-11-21T14:54:27.324Z,3.30
2018-11-21T14:56:56.356Z,3.23
2018-11-21T14:59:28.750Z,3.63
2018-11-21T15:01:57.742Z,2.97
2018-11-21T15:04:26.909Z,8.17
2018-11-21T15:06:55.932Z,2.43
2018-11-21T15:09:25.005Z,4.50
2018-11-21T15:11:54.040Z,4.30
2018-11-21T15:14:24.914Z,4.73
2018-11-21T15:16:53.956Z,5.63
2018-11-21T15:19:23.044Z,4.47
2018-11-21T15:21:53.920Z,7.07
2018-11-21T15:24:23.040Z,6.50
2018-11-21T15:26:52.125Z,5.63
2018-11-21T15:29:21.533Z,7.27
2018-11-21T15:31:53.457Z,6.67
2018-11-21T15:34:22.548Z,2.97
2018-11-21T15:36:51.563Z,6.50
2018-11-21T15:39:20.572Z,4.00
2018-11-21T15:41:49.598Z,5.63
2018-11-21T15:44:22.109Z,5.13
2018-11-21T15:46:51.407Z,5.10
2018-11-21T15:49:20.773Z,10.10
2018-11-21T15:51:49.906Z,9.90
2018-11-21T15:54:19.766Z,4.30
2018-11-21T15:56:48.771Z,2.23
2018-11-21T15:59:17.818Z,3.40
2018-11-21T16:01:46.932Z,5.07
2018-11-21T16:04:15.952Z,3.83
2018-11-21T16:06:44.967Z,8.80
2018-11-21T16:09:14.031Z,1.87
2018-11-21T16:11:43.036Z,3.97
2018-11-21T16:14:12.262Z,3.33
2018-11-21T16:16:41.241Z,8.57
2018-11-21T16:19:10.284Z,7.73
2018-11-21T16:21:39.292Z,11.23
2018-11-21T16:24:08.332Z,3.83
2018-11-21T16:26:37.369Z,3.60
2018-11-21T16:29:06.694Z,5.87
2018-11-21T16:31:35.875Z,4.33
2018-11-21T16:34:04.986Z,7.03
2018-11-21T16:36:34.117Z,4.10
2018-11-21T16:39:03.157Z,5.63
2018-11-21T16:41:32.282Z,5.83
2018-11-21T16:44:01.342Z,6.63
2018-11-21T16:46:30.604Z,4.87
2018-11-21T16:48:59.911Z,6.73
2018-11-21T16:51:29.054Z,4.90
2018-11-21T16:53:58.110Z,2.37
2018-11-21T16:56:27.219Z,7.83
2018-11-21T16:58:56.195Z,6.30
2018-11-21T17:01:25.428Z,3.17
2018-11-21T17:03:54.521Z,10.37
2018-11-21T17:06:23.532Z,7.67
2018-11-21T17:08:55.635Z,8.50
2018-11-21T17:11:24.718Z,6.13
2018-11-21T17:13:53.778Z,5.27
2018-11-21T17:16:25.964Z,6.13
2018-11-21T17:18:54.957Z,3.30
2018-11-21T17:21:23.974Z,2.80
2018-11-21T17:23:53.045Z,4.57
2018-11-21T17:26:22.086Z,3.50
2018-11-21T17:28:51.099Z,5.73
2018-11-21T17:31:20.261Z,4.67
2018-11-21T17:33:52.225Z,8.60
2018-11-21T17:36:18.591Z,5.73
2018-11-21T17:38:47.584Z,3.80
2018-11-21T17:41:16.651Z,5.53
2018-11-21T17:43:45.650Z,9.70
2018-11-21T17:46:14.919Z,7.03
2018-11-21T17:48:43.889Z,6.53
2018-11-21T17:51:13.665Z,6.73
2018-11-21T17:53:42.681Z,10.63
2018-11-21T17:56:11.696Z,9.40
2018-11-21T17:58:40.698Z,13.13
2018-11-21T18:01:09.734Z,6.77
2018-11-21T18:03:38.714Z,7.90
2018-11-21T18:06:10.357Z,17.70
2018-11-21T18:08:39.403Z,9.73
2018-11-21T18:11:08.733Z,10.30
2018-11-21T18:13:37.903Z,10.73
2018-11-21T18:16:09.610Z,11.30
2018-11-21T18:18:38.754Z,6.40
2018-11-21T18:21:10.795Z,6.20
2018-11-21T18:23:42.616Z,13.80
2018-11-21T18:26:13.200Z,4.60
2018-11-21T18:28:40.598Z,3.67
2018-11-21T18:31:09.738Z,8.05
2018-11-21T18:33:41.957Z,3.37
2018-11-21T18:36:15.483Z,6.07
2018-11-21T18:38:44.519Z,8.03
2018-11-21T18:41:13.561Z,2.80
2018-11-21T18:43:42.596Z,9.17
2018-11-21T18:46:11.602Z,7.77
2018-11-21T18:48:46.060Z,6.63
2018-11-21T18:51:15.046Z,11.70
2018-11-21T18:53:44.055Z,36.50
2018-11-21T18:56:42.560Z,61.47
2018-11-21T18:59:22.202Z,41.43
2018-11-21T19:01:51.195Z,23.70
2018-11-21T19:04:20.263Z,11.00
2018-11-21T19:06:49.294Z,6.97
2018-11-21T19:09:18.333Z,22.87
2018-11-21T19:11:47.295Z,5.17
2018-11-21T19:14:16.463Z,5.93
2018-11-21T19:16:45.446Z,8.80
2018-11-21T19:19:14.531Z,6.40
2018-11-21T19:21:43.545Z,3.20
2018-11-21T19:24:12.553Z,4.00
2018-11-21T19:26:41.543Z,2.43
2018-11-21T19:29:10.548Z,5.00
2018-11-21T19:31:39.533Z,4.00
2018-11-21T19:34:08.643Z,4.83
2018-11-21T19:36:37.658Z,4.57
2018-11-21T19:39:10.973Z,5.67
2018-11-21T19:41:40.015Z,3.40
2018-11-21T19:44:09.043Z,5.83
2018-11-21T19:46:38.083Z,3.73
2018-11-21T19:49:07.096Z,5.30
2018-11-21T19:51:36.114Z,3.47
2018-11-21T19:54:05.135Z,8.60
2018-11-21T19:56:34.282Z,7.17
2018-11-21T19:59:03.427Z,6.30
2018-11-21T20:01:32.457Z,6.27
2018-11-21T20:04:01.569Z,3.67
2018-11-21T20:06:30.570Z,7.47
2018-11-21T20:08:59.606Z,4.90
2018-11-21T20:11:28.603Z,4.80
2018-11-21T20:13:57.821Z,3.23
2018-11-21T20:16:26.823Z,6.07
2018-11-21T20:18:55.797Z,3.57
2018-11-21T20:21:25.051Z,2.80
2018-11-21T20:23:54.069Z,7.17
2018-11-21T20:26:23.147Z,6.30
2018-11-21T20:28:52.153Z,8.83
2018-11-21T20:31:21.155Z,5.97
2018-11-21T20:33:50.172Z,3.00
2018-11-21T20:36:19.187Z,3.00
2018-11-21T20:38:48.286Z,3.70
2018-11-21T20:41:17.305Z,9.83
2018-11-21T20:43:46.321Z,5.90
2018-11-21T20:46:15.498Z,7.33
2018-11-21T20:48:44.487Z,3.23
2018-11-21T20:51:13.470Z,6.37
2018-11-21T20:53:42.570Z,9.30
2018-11-21T20:56:11.669Z,7.10
2018-11-21T20:58:40.705Z,4.23
2018-11-21T21:01:09.773Z,10.33
2018-11-21T21:03:38.771Z,5.90
2018-11-21T21:06:07.839Z,12.13
2018-11-21T21:08:36.853Z,5.20
2018-11-21T21:11:06.134Z,4.20
2018-11-21T21:13:38.002Z,6.87
2018-11-21T21:16:07.044Z,2.63
2018-11-21T21:18:36.112Z,4.73
2018-11-21T21:21:05.261Z,3.70
2018-11-21T21:23:34.256Z,3.00
2018-11-21T21:26:03.247Z,5.50
2018-11-21T21:28:32.219Z,4.03
2018-11-21T21:31:01.244Z,5.10
2018-11-21T21:33:30.252Z,3.30
2018-11-21T21:35:59.325Z,3.47
2018-11-21T21:38:28.308Z,4.53
2018-11-21T21:40:57.343Z,5.47
